Time;durP1;ratioP1;P1;durP2;ratioP2;P2;SDS_P1;SDS_P2;PMS_P1;PMS_P2;Temp;Humidity;BMP_temperature;BMP_pressure;BME280_temperature;BME280_humidity;BME280_pressure;Samples;Min_cycle;Max_cycle;Signal;HPM_P1;HPM_P2
2022/06/20 00:01:47;;;;;;;12.57;2.08;;;;;;;20.54;51.19;100104.25;5075289;28;20057;-70
2022/06/20 00:04:17;;;;;;;10.25;2.65;;;;;;;20.47;50.80;100081.31;5077825;28;20102;-69
2022/06/20 00:06:49;;;;;;;7.78;2.10;;;;;;;20.52;50.97;100071.78;5076634;28;20048;-68
2022/06/20 00:09:16;;;;;;;7.82;1.70;;;;;;;20.77;51.06;100083.84;5079161;28;20052;-68
2022/06/20 00:11:47;;;;;;;7.70;1.52;;;;;;;20.87;50.88;100088.19;5085874;28;20093;-68
2022/06/20 00:14:20;;;;;;;12.60;2.33;;;;;;;20.91;50.77;100087.09;5084763;28;20461;-68
2022/06/20 00:16:47;;;;;;;12.80;2.28;;;;;;;20.28;50.57;100001.75;5079364;28;20072;-68
2022/06/20 00:19:14;;;;;;;13.02;3.92;;;;;;;20.74;50.94;100076.88;5075849;28;20454;-69
2022/06/20 00:21:41;;;;;;;7.47;1.70;;;;;;;20.67;50.90;100053.16;5078580;28;20072;-70
2022/06/20 00:24:08;;;;;;;8.65;2.25;;;;;;;20.95;50.85;100079.50;5079871;28;20080;-69
2022/06/20 00:26:36;;;;;;;9.27;2.17;;;;;;;21.06;50.50;100082.66;5073879;28;20556;-70
2022/06/20 00:29:07;;;;;;;12.45;2.90;;;;;;;20.96;50.60;100081.19;5075652;28;20102;-69
2022/06/20 00:31:35;;;;;;;10.82;2.20;;;;;;;21.12;50.19;100086.88;5074823;28;20049;-70
2022/06/20 00:34:02;;;;;;;8.93;1.95;;;;;;;21.00;50.18;100076.41;5086767;28;20127;-69
2022/06/20 00:36:29;;;;;;;12.23;2.13;;;;;;;20.58;50.22;100031.44;5075315;28;20117;-70
2022/06/20 00:38:57;;;;;;;9.43;1.85;;;;;;;20.76;50.18;100066.00;5074686;28;20083;-68
2022/06/20 00:41:28;;;;;;;8.88;1.50;;;;;;;20.69;50.90;100070.66;5079334;28;20445;-68
2022/06/20 00:43:56;;;;;;;8.85;1.95;;;;;;;20.49;50.32;100052.59;5090400;28;20502;-69
2022/06/20 00:46:43;;;;;;;14.77;2.30;;;;;;;20.50;50.92;100068.44;5076094;28;20057;-67
2022/06/20 00:49:12;;;;;;;11.25;2.75;;;;;;;20.45;51.17;100068.69;5075390;28;20478;-69
2022/06/20 00:51:47;;;;;;;7.85;2.08;;;;;;;20.33;51.04;100027.00;5081767;28;20067;-69
2022/06/20 00:54:27;;;;;;;11.30;2.03;;;;;;;20.45;50.86;100034.66;5082400;28;20082;-68
2022/06/20 00:57:25;;;;;;;14.88;1.73;;;;;;;20.49;50.96;100064.78;5088062;28;20503;-67
2022/06/20 01:00:00;;;;;;;11.52;2.15;;;;;;;20.29;50.86;100017.56;5070153;28;20114;-68
2022/06/20 01:02:32;;;;;;;6.07;1.95;;;;;;;20.57;50.68;100041.13;5079091;28;20083;-68
2022/06/20 01:05:05;;;;;;;11.45;2.03;;;;;;;20.70;50.66;100061.75;5076463;28;20079;-68
2022/06/20 01:07:48;;;;;;;9.77;2.35;;;;;;;20.35;50.53;99999.13;5075037;28;20098;-69
2022/06/20 01:10:17;;;;;;;11.75;1.77;;;;;;;20.46;50.32;100054.16;5084875;28;20048;-69
2022/06/20 01:13:06;;;;;;;7.20;1.77;;;;;;;19.93;50.85;100002.31;5084773;28;20072;-69
2022/06/20 01:15:39;;;;;;;15.18;2.10;;;;;;;20.01;51.19;100052.34;5083812;28;20498;-69
2022/06/20 01:18:15;;;;;;;15.73;2.00;;;;;;;20.09;51.50;100068.41;5081209;28;20076;-68
2022/06/20 01:20:44;;;;;;;7.72;1.48;;;;;;;20.18;51.70;100067.47;5074269;28;20045;-68
2022/06/20 01:23:48;;;;;;;8.90;1.80;;;;;;;20.10;51.32;100061.56;5090582;28;20105;-69
2022/06/20 01:26:17;;;;;;;14.98;3.58;;;;;;;20.01;51.20;100062.88;5079657;28;20040;-69
2022/06/20 01:28:47;;;;;;;14.55;3.33;;;;;;;19.74;51.77;100053.09;5077201;28;20517;-69
2022/06/20 01:31:17;;;;;;;11.45;3.85;;;;;;;19.70;51.56;100052.97;5078914;28;20044;-69
2022/06/20 01:33:45;;;;;;;11.80;3.78;;;;;;;19.20;52.39;99971.16;5073232;28;20045;-69
2022/06/20 01:39:00;;;;;;;9.20;1.75;;;;;;;19.95;52.39;100062.28;5091713;28;20048;-69
2022/06/20 01:44:15;;;;;;;7.68;1.75;;;;;;;20.08;51.83;100058.25;5081436;28;20544;-70
2022/06/20 01:46:42;;;;;;;8.63;1.75;;;;;;;20.15;51.60;100065.34;5086960;28;20414;-70
2022/06/20 01:49:19;;;;;;;6.72;1.50;;;;;;;19.82;51.92;100049.31;5092176;28;20087;-69
2022/06/20 01:52:04;;;;;;;5.88;1.70;;;;;;;19.68;52.26;100054.50;5075529;28;20041;-68
2022/06/20 01:54:35;;;;;;;6.00;2.20;;;;;;;19.49;52.56;100038.09;5073632;28;20045;-69
2022/06/20 01:57:05;;;;;;;8.98;2.08;;;;;;;19.52;52.81;100043.00;5072992;28;20139;-69
2022/06/20 02:00:00;;;;;;;7.10;1.58;;;;;;;19.49;52.97;100047.41;5073667;28;20553;-70
2022/06/20 02:02:31;;;;;;;9.05;2.67;;;;;;;19.47;52.65;100034.75;5067289;28;20075;-69
2022/06/20 02:04:58;;;;;;;6.13;1.77;;;;;;;19.54;52.61;100044.31;5075313;28;20151;-69
2022/06/20 02:07:25;;;;;;;6.00;1.75;;;;;;;19.40;53.01;100043.84;5073529;28;20048;-69
2022/06/20 02:09:52;;;;;;;4.32;1.20;;;;;;;19.43;53.42;100031.81;5074439;28;20067;-69
2022/06/20 02:12:19;;;;;;;7.30;2.28;;;;;;;19.57;52.58;100040.78;5076094;28;20342;-69
2022/06/20 02:14:51;;;;;;;7.60;1.80;;;;;;;19.20;53.27;99993.81;5083943;28;20045;-69
2022/06/20 02:17:41;;;;;;;3.50;2.40;;;;;;;19.41;52.95;100034.16;5090067;28;20075;-69
2022/06/20 02:20:13;;;;;;;11.63;2.00;;;;;;;19.33;52.93;100035.94;5079790;28;20080;-69
2022/06/20 02:22:41;;;;;;;10.23;2.45;;;;;;;19.14;53.40;100036.50;5086978;28;20082;-68
2022/06/20 02:25:13;;;;;;;12.77;5.25;;;;;;;19.13;53.71;100034.84;5083022;28;20049;-69
2022/06/20 02:27:47;;;;;;;5.40;3.95;;;;;;;19.26;53.55;100038.53;5074208;28;20052;-69
2022/06/20 02:30:15;;;;;;;6.32;3.97;;;;;;;19.28;53.31;100040.97;5071486;28;20095;-69
2022/06/20 02:32:46;;;;;;;5.90;3.90;;;;;;;19.14;53.21;100047.81;5073148;28;20098;-69
2022/06/20 02:35:17;;;;;;;6.88;4.07;;;;;;;19.19;53.19;100038.28;5073793;28;20052;-68
2022/06/20 02:37:46;;;;;;;10.45;3.70;;;;;;;19.28;53.31;100041.84;5089333;28;20076;-69
2022/06/20 02:40:17;;;;;;;5.35;3.63;;;;;;;19.27;53.10;100045.00;5077731;28;20077;-67
2022/06/20 02:42:48;;;;;;;10.93;4.65;;;;;;;19.14;53.06;100053.50;5076687;28;20486;-67
2022/06/20 02:45:17;;;;;;;8.63;4.25;;;;;;;18.98;53.19;100021.38;5072496;28;20495;-67
2022/06/20 02:47:50;;;;;;;8.23;3.93;;;;;;;18.92;53.17;100034.09;5083178;28;20044;-66
2022/06/20 02:50:22;;;;;;;7.28;3.78;;;;;;;18.79;53.54;100040.88;5072768;28;20285;-67
2022/06/20 02:52:55;;;;;;;5.85;3.75;;;;;;;18.55;53.70;100011.28;5073057;28;20072;-67
2022/06/20 02:55:24;;;;;;;9.85;4.43;;;;;;;18.58;53.75;100038.06;5077330;28;20052;-67
2022/06/20 02:57:58;;;;;;;8.35;4.00;;;;;;;18.12;53.75;99989.91;5074450;28;20080;-66
2022/06/20 03:00:39;;;;;;;7.70;4.25;;;;;;;18.21;54.19;100016.09;5088892;28;20064;-67
2022/06/20 03:03:13;;;;;;;8.32;4.15;;;;;;;18.31;53.99;100030.97;5072710;28;20076;-67
2022/06/20 03:05:40;;;;;;;9.40;4.45;;;;;;;18.20;54.84;100017.25;5079013;28;20113;-68
2022/06/20 03:08:08;;;;;;;11.30;4.65;;;;;;;18.32;54.57;100038.28;5073622;28;20084;-66
2022/06/20 03:10:40;;;;;;;8.98;4.53;;;;;;;18.11;54.94;100019.31;5075606;28;20052;-67
2022/06/20 03:13:08;;;;;;;8.65;4.55;;;;;;;18.14;55.17;100037.59;5073900;28;20048;-65
2022/06/20 03:15:37;;;;;;;9.85;4.18;;;;;;;18.11;55.17;100027.78;5084013;28;20047;-66
2022/06/20 03:18:06;;;;;;;10.07;4.65;;;;;;;18.18;55.02;100028.06;5092580;28;20113;-67
2022/06/20 03:20:34;;;;;;;10.73;3.75;;;;;;;18.07;55.33;100007.06;5073359;28;20049;-67
2022/06/20 03:23:43;;;;;;;15.55;4.25;;;;;;;18.01;55.24;100011.25;5075005;28;20491;-67
2022/06/20 03:26:17;;;;;;;8.68;4.18;;;;;;;18.14;55.61;100038.41;5073019;28;20627;-68
2022/06/20 03:28:44;;;;;;;11.63;5.15;;;;;;;18.04;55.24;100033.16;5079996;28;20052;-67
2022/06/20 03:31:11;;;;;;;9.32;4.72;;;;;;;18.19;55.61;100040.22;5090224;28;20048;-67
2022/06/20 03:33:39;;;;;;;12.50;5.15;;;;;;;18.16;55.17;100021.97;5072302;28;20567;-67
2022/06/20 03:36:27;;;;;;;9.70;5.18;;;;;;;18.08;55.48;100016.34;5071268;28;20100;-68
2022/06/20 03:38:56;;;;;;;12.88;5.13;;;;;;;18.14;55.43;100037.59;5072624;28;20432;-67
2022/06/20 03:41:26;;;;;;;11.13;4.82;;;;;;;17.97;55.48;100024.41;5071550;28;20045;-67
2022/06/20 03:44:20;;;;;;;5.18;4.78;;;;;;;18.03;55.53;100034.34;5088718;28;20047;-67
2022/06/20 03:46:55;;;;;;;8.07;4.55;;;;;;;18.21;55.70;100038.69;5091998;28;20409;-68
2022/06/20 03:49:32;;;;;;;9.80;4.53;;;;;;;18.03;55.57;99974.19;5081233;28;20048;-67
2022/06/20 03:52:06;;;;;;;8.25;4.50;;;;;;;18.12;55.09;100004.03;5072456;28;20095;-67
2022/06/20 03:54:49;;;;;;;6.70;4.20;;;;;;;18.04;55.23;100024.69;5075389;28;20495;-68
2022/06/20 03:57:44;;;;;;;9.50;4.47;;;;;;;17.62;55.53;99967.31;5071377;28;20049;-68
2022/06/20 04:00:15;;;;;;;8.35;4.15;;;;;;;17.98;55.92;100017.59;5073691;28;20499;-68
2022/06/20 04:02:53;;;;;;;13.77;4.70;;;;;;;17.96;56.03;100025.59;5075845;28;20081;-67
2022/06/20 04:05:45;;;;;;;6.18;3.70;;;;;;;17.99;55.74;100022.09;5078717;28;20131;-67
2022/06/20 04:08:23;;;;;;;8.23;3.90;;;;;;;17.96;55.46;100017.94;5077337;28;20078;-67
2022/06/20 04:11:01;;;;;;;8.13;4.05;;;;;;;17.93;55.54;100017.81;5076042;28;20052;-68
2022/06/20 04:13:35;;;;;;;9.27;3.78;;;;;;;17.89;55.56;100030.97;5083366;28;20048;-67
2022/06/20 04:16:08;;;;;;;7.72;4.22;;;;;;;17.86;55.24;100024.00;5095204;28;20084;-67
2022/06/20 04:19:05;;;;;;;8.52;3.90;;;;;;;17.52;55.40;99974.19;5081732;28;20052;-66
2022/06/20 04:21:44;;;;;;;7.32;4.45;;;;;;;17.64;55.48;100024.25;5078571;28;20044;-67
2022/06/20 04:24:17;;;;;;;6.20;3.88;;;;;;;17.59;55.61;100025.28;5076462;28;20069;-68
2022/06/20 04:26:51;;;;;;;6.82;4.00;;;;;;;17.53;55.97;100018.19;5094641;28;20052;-67
2022/06/20 04:29:24;;;;;;;4.63;3.38;;;;;;;17.47;55.61;100033.66;5077232;28;20107;-69
2022/06/20 04:32:00;;;;;;;7.60;3.90;;;;;;;17.37;55.84;100020.75;5089826;28;20044;-67
2022/06/20 04:34:37;;;;;;;5.28;3.85;;;;;;;17.41;55.85;100026.56;5089994;28;20576;-69
2022/06/20 04:37:16;;;;;;;6.15;4.82;;;;;;;17.49;56.27;100022.84;5076489;28;20086;-66
2022/06/20 04:39:46;;;;;;;4.95;3.70;;;;;;;17.52;55.49;100022.19;5075187;28;20060;-68
2022/06/20 04:42:39;;;;;;;8.40;4.00;;;;;;;17.32;55.72;100006.00;5092150;28;20084;-68
2022/06/20 04:45:27;;;;;;;5.82;3.83;;;;;;;17.35;55.87;100027.91;5083295;28;20044;-68
2022/06/20 04:47:59;;;;;;;6.15;4.00;;;;;;;17.03;55.59;99977.41;5083694;28;20041;-68
2022/06/20 04:50:30;;;;;;;7.85;3.90;;;;;;;17.13;55.45;100018.53;5083209;28;20075;-69
2022/06/20 04:53:05;;;;;;;7.07;3.88;;;;;;;16.96;55.74;100018.59;5091600;28;20044;-68
2022/06/20 04:55:34;;;;;;;8.15;4.07;;;;;;;16.78;56.07;100026.25;5081615;28;20048;-67
2022/06/20 04:58:05;;;;;;;6.23;4.13;;;;;;;16.62;56.30;100023.13;5097127;28;20043;-67
2022/06/20 05:00:41;;;;;;;3.70;3.40;;;;;;;16.57;56.66;100028.91;5082405;28;20049;-67
2022/06/20 05:03:13;;;;;;;5.25;3.40;;;;;;;16.34;56.57;100014.19;5079615;28;20041;-68
2022/06/20 05:05:43;;;;;;;3.92;3.58;;;;;;;16.31;57.32;100029.78;5081242;28;20058;-68
2022/06/20 05:08:13;;;;;;;7.90;4.47;;;;;;;16.29;56.99;100032.09;5088769;28;20044;-66
2022/06/20 05:10:50;;;;;;;7.47;3.80;;;;;;;16.20;57.42;100030.44;5079796;28;20041;-68
2022/06/20 05:13:25;;;;;;;4.35;3.95;;;;;;;15.73;57.38;99948.59;5078383;28;20094;-68
2022/06/20 05:15:53;;;;;;;3.60;3.20;;;;;;;16.12;57.61;100029.28;5074820;28;20083;-67
2022/06/20 05:18:41;;;;;;;5.75;3.75;;;;;;;16.11;57.62;100025.63;5092952;28;20055;-68
2022/06/20 05:21:20;;;;;;;5.10;3.30;;;;;;;16.02;57.60;100026.78;5077063;28;20109;-67
2022/06/20 05:23:51;;;;;;;5.40;3.43;;;;;;;16.15;57.69;100037.06;5073846;28;20384;-67
2022/06/20 05:26:31;;;;;;;6.18;3.25;;;;;;;16.00;57.87;100021.50;5075146;28;20098;-67
2022/06/20 05:29:03;;;;;;;4.10;3.70;;;;;;;16.00;58.17;100035.56;5086930;28;20506;-67
2022/06/20 05:31:34;;;;;;;5.63;3.60;;;;;;;16.04;58.33;100032.94;5082585;28;20126;-67
2022/06/20 05:34:10;;;;;;;4.73;3.80;;;;;;;16.00;57.97;100034.72;5084531;28;20529;-68
2022/06/20 05:36:53;;;;;;;4.28;3.10;;;;;;;15.95;58.04;100020.81;5079284;28;20251;-67
2022/06/20 05:39:33;;;;;;;6.87;3.83;;;;;;;15.49;58.58;99979.97;5076970;28;20056;-69
2022/06/20 05:42:00;;;;;;;;;;;;;;;15.69;58.50;100046.09;5074613;28;20076;-68
2022/06/20 05:44:27;;;;;;;7.00;3.40;;;;;;;15.53;58.70;99995.03;5075898;28;19920;-65
2022/06/20 05:47:04;;;;;;;6.03;3.40;;;;;;;15.92;58.54;100035.56;5084089;28;20142;-66
2022/06/20 05:50:12;;;;;;;5.07;3.23;;;;;;;16.15;58.90;100048.34;5093045;28;20084;-64
2022/06/20 05:52:43;;;;;;;12.43;11.47;;;;;;;16.44;58.86;100056.13;5083462;28;20117;-65
2022/06/20 05:55:17;;;;;;;10.60;9.88;;;;;;;16.25;59.20;100008.56;5072314;28;20086;-66
2022/06/20 05:57:47;;;;;;;9.57;8.90;;;;;;;17.02;58.71;100053.91;5084845;28;20075;-66
2022/06/20 06:00:22;;;;;;;11.75;10.98;;;;;;;17.03;57.95;100019.75;5094577;28;20061;-65
2022/06/20 06:02:59;;;;;;;8.77;8.18;;;;;;;17.54;57.75;100053.72;5086089;28;20486;-66
2022/06/20 06:05:33;;;;;;;9.43;8.73;;;;;;;17.83;57.20;100054.94;5101425;28;20051;-66
2022/06/20 06:08:23;;;;;;;8.77;8.18;;;;;;;18.05;57.43;100062.25;5084072;28;20044;-66
2022/06/20 06:11:23;;;;;;;8.75;8.25;;;;;;;18.15;56.62;100039.25;5077736;28;20520;-66
2022/06/20 06:14:13;;;;;;;;;;;;;;;18.52;56.45;100056.41;5079450;28;20048;-66
2022/06/20 06:17:15;;;;;;;12.07;11.35;;;;;;;18.80;55.99;100053.84;5074899;28;20015;-66
2022/06/20 06:20:11;;;;;;;9.55;8.75;;;;;;;19.15;55.64;100038.16;5075547;28;21558;-66
2022/06/20 06:22:44;;;;;;;9.02;8.25;;;;;;;19.58;54.59;100062.25;5078708;28;20055;-67
2022/06/20 06:25:19;;;;;;;9.85;8.85;;;;;;;19.87;54.08;100074.56;5073369;28;20086;-67
2022/06/20 06:27:48;;;;;;;9.05;8.45;;;;;;;20.17;53.28;100054.44;5071461;28;20040;-66
2022/06/20 06:30:22;;;;;;;9.45;8.85;;;;;;;20.43;52.49;100049.19;5082555;28;20514;-66
2022/06/20 06:33:22;;;;;;;9.68;8.75;;;;;;;20.75;52.20;100055.84;5075315;28;20057;-66
2022/06/20 06:35:55;;;;;;;9.88;9.18;;;;;;;21.12;51.65;100071.84;5074463;28;20099;-66
2022/06/20 06:38:40;;;;;;;9.13;8.52;;;;;;;21.42;50.72;100080.81;5076066;28;20052;-67
2022/06/20 06:41:18;;;;;;;10.52;8.30;;;;;;;21.62;50.57;100078.91;5073727;28;20048;-67
2022/06/20 06:43:45;;;;;;;9.18;8.68;;;;;;;21.85;49.86;100073.41;5075731;28;20067;-67
2022/06/20 06:46:25;;;;;;;8.43;7.80;;;;;;;21.98;49.16;100075.75;5073079;28;20067;-66
2022/06/20 06:49:05;;;;;;;;;;;;;;;22.19;50.29;100086.03;5074345;28;20050;-67
2022/06/20 06:51:38;;;;;;;;;;;;;;;22.50;50.36;100084.28;5076606;28;19970;-67
2022/06/20 06:54:15;;;;;;;8.95;8.27;;;;;;;22.83;49.12;100081.72;5074870;28;19963;-67
2022/06/20 06:56:56;;;;;;;8.48;7.97;;;;;;;22.97;48.46;100069.00;5087158;28;20147;-67
2022/06/20 07:00:12;;;;;;;8.02;7.53;;;;;;;23.31;47.54;100084.31;5076497;28;20052;-67
2022/06/20 07:02:45;;;;;;;9.38;8.57;;;;;;;23.40;46.77;100062.94;5074988;28;20097;-66
2022/06/20 07:05:25;;;;;;;10.15;9.52;;;;;;;23.80;46.48;100090.13;5079605;28;20418;-67
2022/06/20 07:08:05;;;;;;;9.35;8.65;;;;;;;23.83;45.60;100091.41;5077204;28;20075;-67
2022/06/20 07:10:39;;;;;;;9.77;9.27;;;;;;;23.60;45.43;100052.28;5078112;28;20601;-67
2022/06/20 07:13:41;;;;;;;9.38;8.88;;;;;;;24.07;45.34;100095.88;5077742;28;20130;-66
2022/06/20 07:16:20;;;;;;;9.90;9.10;;;;;;;24.09;44.90;100107.69;5052449;28;20051;-67
2022/06/20 07:18:52;;;;;;;9.52;8.88;;;;;;;24.07;44.92;100090.97;5082312;28;20048;-66
2022/06/20 07:21:22;;;;;;;8.70;8.20;;;;;;;23.92;44.26;100059.75;5074333;28;20066;-66
2022/06/20 07:23:56;;;;;;;10.80;10.18;;;;;;;24.36;44.25;100102.81;5070744;28;20105;-66
2022/06/20 07:26:25;;;;;;;8.90;8.32;;;;;;;24.51;43.10;100083.88;5072962;28;20093;-67
2022/06/20 07:28:58;;;;;;;8.93;8.15;;;;;;;24.89;42.70;100124.78;5075620;28;20514;-67
2022/06/20 07:31:31;;;;;;;9.32;8.82;;;;;;;25.08;42.49;100129.50;5067393;28;20078;-67
2022/06/20 07:34:18;;;;;;;10.73;10.18;;;;;;;25.17;42.16;100102.31;5082319;28;20511;-67
2022/06/20 07:36:54;;;;;;;2.03;1.00;;;;;;;25.40;41.89;100115.59;5083532;28;20507;-68
2022/06/20 07:39:32;;;;;;;7.85;2.22;;;;;;;25.51;41.26;100119.41;5082532;28;20395;-66
2022/06/20 07:42:07;;;;;;;5.82;3.35;;;;;;;25.39;41.41;100099.69;5081413;28;20495;-67
2022/06/20 07:44:44;;;;;;;2.42;1.13;;;;;;;25.53;41.27;100094.91;5083677;28;20182;-67
2022/06/20 07:47:18;;;;;;;5.38;1.00;;;;;;;25.95;40.50;100118.66;5085419;28;20113;-66
2022/06/20 07:49:55;;;;;;;2.90;0.73;;;;;;;26.23;40.11;100116.00;5088293;28;20503;-67
2022/06/20 07:52:28;;;;;;;1.65;0.75;;;;;;;26.46;39.70;100124.34;5083994;28;20063;-68
2022/06/20 07:54:59;;;;;;;1.25;0.90;;;;;;;26.67;39.37;100117.94;5082924;28;20048;-68
2022/06/20 07:57:36;;;;;;;2.45;0.90;;;;;;;26.72;39.02;100098.72;5091472;28;20060;-68
2022/06/20 08:00:11;;;;;;;3.78;1.17;;;;;;;26.78;38.80;100117.19;5082621;28;20455;-66
2022/06/20 08:02:43;;;;;;;2.35;1.10;;;;;;;26.84;39.02;100119.25;5079083;28;20555;-67
2022/06/20 08:05:18;;;;;;;2.85;0.60;;;;;;;26.83;38.67;100096.72;5095368;28;20086;-68
2022/06/20 08:07:53;;;;;;;3.03;0.98;;;;;;;27.05;38.20;100127.13;5085786;28;20048;-67
2022/06/20 08:10:49;;;;;;;1.48;0.82;;;;;;;26.96;38.76;100118.06;5076154;28;20138;-68
2022/06/20 08:13:26;;;;;;;1.35;0.85;;;;;;;26.43;38.46;100047.00;5087262;28;20043;-68
2022/06/20 08:16:10;;;;;;;3.75;1.20;;;;;;;26.57;38.45;100084.34;5084341;28;20142;-68
2022/06/20 08:18:37;;;;;;;3.63;0.82;;;;;;;26.83;38.61;100134.78;5076063;28;20099;-68
2022/06/20 08:21:18;;;;;;;3.60;0.98;;;;;;;26.64;38.26;100113.00;5079976;28;20558;-66
2022/06/20 08:23:50;;;;;;;1.35;0.80;;;;;;;26.69;38.38;100121.22;5085694;28;20554;-67
2022/06/20 08:26:25;;;;;;;1.05;0.70;;;;;;;26.67;38.31;100112.22;5085468;28;20080;-68
2022/06/20 08:29:03;;;;;;;3.78;1.20;;;;;;;26.96;38.23;100120.94;5083987;28;20080;-67
2022/06/20 08:31:30;;;;;;;5.53;2.22;;;;;;;27.17;37.64;100123.91;5085363;28;20549;-67
2022/06/20 08:33:57;;;;;;;5.15;1.70;;;;;;;27.15;37.58;100126.38;5088937;28;20044;-68
2022/06/20 08:36:48;;;;;;;1.67;1.10;;;;;;;27.36;37.24;100127.66;5087633;28;20052;-68
2022/06/20 08:39:25;;;;;;;1.38;0.80;;;;;;;27.13;37.22;100110.78;5087084;28;20055;-68
2022/06/20 08:41:56;;;;;;;6.25;1.40;;;;;;;27.17;36.93;100134.56;5085048;28;20558;-68
2022/06/20 08:44:26;;;;;;;8.52;8.13;;;;;;;26.89;37.12;100123.78;5086823;28;20052;-67
2022/06/20 08:47:11;;;;;;;9.35;8.85;;;;;;;26.45;37.65;100136.16;5086480;28;20387;-67
2022/06/20 08:50:00;;;;;;;8.85;8.35;;;;;;;26.31;38.08;100116.03;5081440;28;20133;-68
2022/06/20 08:52:56;;;;;;;9.40;8.80;;;;;;;26.83;37.46;100128.25;5082639;28;20080;-68
2022/06/20 08:56:03;;;;;;;9.07;8.57;;;;;;;27.41;37.35;100124.38;5092855;28;20048;-67
2022/06/20 08:58:58;;;;;;;8.32;7.88;;;;;;;27.29;36.92;100085.47;5083674;28;20140;-67
2022/06/20 09:01:41;;;;;;;7.85;7.35;;;;;;;27.69;36.86;100131.41;5081355;28;20684;-67
2022/06/20 09:04:37;;;;;;;8.73;7.90;;;;;;;27.77;36.44;100128.19;5092166;28;20048;-67
2022/06/20 09:07:22;;;;;;;9.43;8.82;;;;;;;27.35;37.06;100146.94;5078993;28;20098;-67
2022/06/20 09:10:15;;;;;;;9.40;8.52;;;;;;;26.94;37.62;100146.31;5078315;28;20059;-67
2022/06/20 09:13:20;;;;;;;10.50;9.55;;;;;;;26.52;37.86;100147.69;5071317;28;20044;-67
2022/06/20 09:16:05;;;;;;;10.00;9.30;;;;;;;26.69;38.02;100138.41;5080698;28;20125;-67
2022/06/20 09:18:56;;;;;;;9.77;9.15;;;;;;;26.89;37.79;100143.81;5077105;28;20070;-67
2022/06/20 09:21:44;;;;;;;10.23;9.63;;;;;;;27.13;37.07;100117.34;5086024;28;20083;-67
2022/06/20 09:24:40;;;;;;;8.82;8.32;;;;;;;27.33;37.21;100146.50;5084251;28;20079;-67
2022/06/20 09:27:12;;;;;;;8.65;8.25;;;;;;;27.16;36.61;100145.22;5056492;28;20147;-67
2022/06/20 09:29:42;;;;;;;9.95;9.35;;;;;;;26.63;37.02;100151.47;5075072;28;20083;-67
2022/06/20 09:32:14;;;;;;;;;;;;;;;26.10;38.58;100154.72;5088995;28;20072;-67
2022/06/20 09:34:50;;;;;;;9.95;9.45;;;;;;;26.77;37.63;100150.75;5085733;28;20712;-67
2022/06/20 09:37:20;;;;;;;10.32;9.73;;;;;;;27.46;36.75;100157.59;5078314;28;20072;-67
2022/06/20 09:40:16;;;;;;;9.48;8.80;;;;;;;27.90;36.42;100150.72;5078135;28;20133;-66
2022/06/20 09:43:06;;;;;;;9.60;8.88;;;;;;;27.80;35.88;100144.59;5080124;28;20079;-67
2022/06/20 09:45:48;;;;;;;9.70;9.00;;;;;;;27.58;36.46;100148.59;5081951;28;20463;-66
2022/06/20 09:48:30;;;;;;;9.32;8.88;;;;;;;27.32;36.70;100153.47;5079339;28;20506;-67
2022/06/20 09:51:05;;;;;;;10.40;9.45;;;;;;;27.00;37.15;100159.03;5087209;28;20052;-66
2022/06/20 09:53:43;;;;;;;10.95;10.02;;;;;;;27.25;37.00;100162.03;5081914;28;20082;-66
2022/06/20 09:56:22;;;;;;;9.07;8.13;;;;;;;27.44;37.04;100158.00;5081724;28;20470;-67
2022/06/20 09:58:49;;;;;;;10.05;9.55;;;;;;;27.14;37.28;100161.97;5074367;28;20071;-66
2022/06/20 10:01:38;;;;;;;9.40;8.55;;;;;;;26.96;37.48;100168.84;5079513;28;20078;-66
2022/06/20 10:04:23;;;;;;;;;;;;;;;26.82;38.18;100169.56;5087061;28;20054;-67
2022/06/20 10:07:23;;;;;;;8.85;8.30;;;;;;;26.58;38.18;100131.78;5083678;28;20262;-66
2022/06/20 10:10:04;;;;;;;9.73;8.95;;;;;;;27.10;37.29;100168.91;5086518;28;20062;-66
2022/06/20 10:12:37;;;;;;;9.95;9.25;;;;;;;27.81;36.57;100177.78;5076328;28;20080;-67
2022/06/20 10:15:24;;;;;;;9.18;8.68;;;;;;;27.49;36.26;100117.47;5076280;28;20056;-67
2022/06/20 10:18:02;;;;;;;9.93;9.02;;;;;;;27.90;36.38;100182.28;5073752;28;20074;-66
2022/06/20 10:20:48;;;;;;;9.02;8.45;;;;;;;28.60;35.93;100174.13;5077059;28;20079;-67
2022/06/20 10:23:22;;;;;;;10.02;9.07;;;;;;;28.99;35.04;100185.50;5077640;28;20576;-67
2022/06/20 10:26:30;;;;;;;8.98;8.27;;;;;;;28.67;35.65;100180.66;5086354;28;20052;-67
2022/06/20 10:28:59;;;;;;;11.07;10.43;;;;;;;28.35;35.78;100187.25;5087259;28;20126;-67
2022/06/20 10:31:32;;;;;;;9.82;8.48;;;;;;;28.57;35.24;100182.31;5075209;28;20080;-66
2022/06/20 10:34:10;;;;;;;9.05;8.50;;;;;;;28.65;35.48;100188.06;5086038;28;20071;-66
2022/06/20 10:37:04;;;;;;;8.70;8.13;;;;;;;28.06;36.02;100180.66;5089324;28;20059;-66
2022/06/20 10:39:56;;;;;;;9.05;8.45;;;;;;;27.51;36.87;100195.28;5082393;28;20098;-67
2022/06/20 10:42:31;;;;;;;8.80;8.20;;;;;;;27.16;36.92;100199.66;5071357;28;20080;-67
2022/06/20 10:45:16;;;;;;;8.95;8.10;;;;;;;27.01;37.39;100179.91;5083904;28;20094;-71
2022/06/20 10:48:04;;;;;;;8.60;8.10;;;;;;;27.35;37.20;100195.66;5080093;28;20075;-67
2022/06/20 10:50:44;;;;;;;8.07;7.68;;;;;;;27.00;37.39;100209.78;5090381;28;20079;-67
2022/06/20 10:53:14;;;;;;;10.40;9.70;;;;;;;26.77;37.63;100218.63;5075810;28;20110;-65
2022/06/20 10:56:18;;;;;;;9.43;8.73;;;;;;;26.78;37.60;100197.38;5089467;28;20106;-69
2022/06/20 10:59:06;;;;;;;8.30;7.80;;;;;;;26.58;37.83;100200.53;5086165;28;20043;-67
2022/06/20 11:01:54;;;;;;;12.00;11.38;;;;;;;25.87;38.00;100151.25;5081571;28;20125;-69
2022/06/20 11:04:51;;;;;;;9.88;9.38;;;;;;;26.19;38.26;100209.59;5079022;28;20047;-66
2022/06/20 11:07:33;;;;;;;12.82;9.27;;;;;;;26.08;38.22;100170.63;5076581;28;20541;-67
2022/06/20 11:10:18;;;;;;;9.07;8.57;;;;;;;26.52;38.01;100196.38;5080830;28;20056;-68
2022/06/20 11:12:52;;;;;;;11.15;10.55;;;;;;;26.79;37.82;100201.88;5086330;28;20128;-67
2022/06/20 11:15:51;;;;;;;8.55;7.95;;;;;;;26.44;38.26;100200.38;5085364;28;20079;-66
2022/06/20 11:18:18;;;;;;;8.90;8.40;;;;;;;26.34;38.56;100206.84;5082291;28;20048;-65
2022/06/20 11:21:14;;;;;;;8.48;8.00;;;;;;;26.71;38.23;100192.44;5083073;28;20084;-66
2022/06/20 11:24:05;;;;;;;7.75;7.35;;;;;;;26.91;38.04;100182.31;5090316;28;20101;-67
2022/06/20 11:26:34;;;;;;;13.38;12.52;;;;;;;27.57;37.62;100208.03;5083949;28;20077;-66
2022/06/20 11:29:30;;;;;;;;;;;;;;;27.58;38.22;100192.44;5081892;28;20087;-66
2022/06/20 11:32:23;;;;;;;8.63;8.10;;;;;;;27.76;37.56;100203.16;5069610;28;19955;-65
2022/06/20 11:35:04;;;;;;;9.00;8.20;;;;;;;27.76;37.42;100200.31;5076551;28;20503;-67
2022/06/20 11:38:14;;;;;;;9.60;9.00;;;;;;;27.46;37.69;100198.56;5070871;28;20056;-66
2022/06/20 11:41:02;;;;;;;9.45;8.85;;;;;;;27.29;37.21;100194.41;5076490;28;20087;-68
2022/06/20 11:44:08;;;;;;;9.70;8.88;;;;;;;27.63;37.05;100197.81;5075616;28;20063;-65
2022/06/20 11:47:12;;;;;;;9.55;8.95;;;;;;;27.25;37.05;100212.78;5088181;28;20044;-66
2022/06/20 11:50:07;;;;;;;11.43;10.38;;;;;;;27.23;37.16;100201.75;5083215;28;20442;-72
2022/06/20 11:52:53;;;;;;;10.13;9.52;;;;;;;27.21;37.14;100206.22;5079254;28;20091;-67
2022/06/20 11:55:27;;;;;;;9.13;8.63;;;;;;;27.34;37.05;100190.31;5071541;28;20531;-71
2022/06/20 11:58:19;;;;;;;10.60;9.90;;;;;;;27.51;36.90;100205.94;5079203;28;20575;-66
2022/06/20 12:00:52;;;;;;;9.52;9.02;;;;;;;27.64;36.74;100199.44;5073938;28;20056;-67
2022/06/20 12:03:52;;;;;;;10.00;9.40;;;;;;;27.94;36.51;100201.19;5074208;28;20083;-67
2022/06/20 12:06:24;;;;;;;;;;;;;;;28.00;36.90;100208.16;5075765;28;20063;-66
2022/06/20 12:08:54;;;;;;;9.50;8.95;;;;;;;28.27;36.17;100208.59;5090891;28;19986;-66
2022/06/20 12:11:30;;;;;;;10.48;9.85;;;;;;;28.62;35.19;100200.41;5073904;28;20675;-67
2022/06/20 12:13:58;;;;;;;10.35;9.50;;;;;;;28.83;34.78;100205.28;5075774;28;20091;-66
2022/06/20 12:16:54;;;;;;;11.25;10.55;;;;;;;28.67;35.11;100218.03;5082760;28;20518;-67
2022/06/20 12:25:35;;;;;;;11.35;10.65;;;;;;;27.27;36.23;100213.22;5093248;28;20105;-67
2022/06/20 12:28:18;;;;;;;9.98;9.38;;;;;;;27.16;36.36;100201.72;5087170;28;20055;-66